Time;durP1;ratioP1;P1;durP2;ratioP2;P2;SDS_P1;SDS_P2;PMS_P1;PMS_P2;Temp;Humidity;BMP_temperature;BMP_pressure;BME280_temperature;BME280_humidity;BME280_pressure;Samples;Min_cycle;Max_cycle;Signal;HPM_P1;HPM_P2
2021/05/05 00:01:30;;;;;;;2.20;1.37;;;;;;;;;;4985076;28;20502;-84
2021/05/05 00:09:21;;;;;;;2.83;1.77;;;;;;;;;;5542302;23;20833;-82
2021/05/05 00:11:47;;;;;;;1.73;1.63;;;;;;;;;;4940612;29;20422;-86
2021/05/05 00:14:14;;;;;;;2.00;1.43;;;;;;;;;;4941179;29;20445;-84
2021/05/05 00:16:41;;;;;;;2.47;1.70;;;;;;;;;;4940007;29;20439;-83
2021/05/05 00:19:07;;;;;;;3.73;1.37;;;;;;;;;;4924115;29;20807;-83
2021/05/05 00:21:33;;;;;;;3.47;1.47;;;;;;;;;;4942799;29;20455;-83
2021/05/05 00:24:00;;;;;;;3.70;1.50;;;;;;;;;;4944572;29;20450;-83
2021/05/05 00:26:26;;;;;;;1.50;1.40;;;;;;;;;;4945637;29;20430;-83
2021/05/05 00:28:52;;;;;;;2.43;1.67;;;;;;;;;;4942906;29;20931;-84
2021/05/05 00:31:18;;;;;;;3.57;1.70;;;;;;;;;;4939404;28;20440;-83
2021/05/05 00:33:45;;;;;;;3.67;1.80;;;;;;;;;;4940858;29;20434;-84
2021/05/05 00:36:12;;;;;;;2.83;1.80;;;;;;;;;;4940409;29;20434;-83
2021/05/05 00:38:38;;;;;;;1.52;1.25;;;;;;;;;;4926490;29;20213;-83
2021/05/05 00:41:08;;;;;;;1.87;1.40;;;;;;;;;;4943683;29;20639;-83
2021/05/05 00:43:34;;;;;;;2.20;1.67;;;;;;;;;;4932952;29;20454;-84
2021/05/05 00:46:01;;;;;;;2.92;1.73;;;;;;;;;;4941204;28;20450;-82
2021/05/05 00:48:27;;;;;;;1.50;1.40;;;;;;;;;;4943057;28;20225;-84
2021/05/05 00:50:57;;;;;;;3.90;1.97;;;;;;;;;;4943699;28;20411;-85
2021/05/05 00:53:23;;;;;;;1.88;1.48;;;;;;;;;;4959352;28;20395;-85
2021/05/05 00:55:49;;;;;;;1.63;1.53;;;;;;;;;;4953916;28;20186;-84
2021/05/05 00:58:16;;;;;;;2.70;1.57;;;;;;;;;;4950455;29;20461;-84
2021/05/05 01:00:43;;;;;;;3.30;1.77;;;;;;;;;;4935787;29;20429;-84
2021/05/05 01:03:09;;;;;;;4.27;2.57;;;;;;;;;;4951298;29;20457;-84
2021/05/05 01:05:39;;;;;;;2.10;1.77;;;;;;;;;;4934662;29;20411;-84
2021/05/05 01:08:07;;;;;;;1.77;1.67;;;;;;;;;;4928610;29;20469;-85
2021/05/05 01:10:33;;;;;;;1.73;1.63;;;;;;;;;;4946713;29;20422;-83
2021/05/05 01:13:00;;;;;;;2.13;1.93;;;;;;;;;;4953382;29;20425;-84
2021/05/05 01:15:26;;;;;;;2.03;1.83;;;;;;;;;;4954158;29;20429;-84
2021/05/05 01:17:53;;;;;;;5.55;2.45;;;;;;;;;;4938907;29;20191;-83
2021/05/05 01:20:19;;;;;;;1.90;1.50;;;;;;;;;;4954447;29;20707;-84
2021/05/05 01:22:45;;;;;;;4.77;1.80;;;;;;;;;;4953427;29;20457;-85
2021/05/05 01:25:15;;;;;;;2.90;1.83;;;;;;;;;;4949619;29;20415;-84
2021/05/05 01:27:42;;;;;;;2.07;1.60;;;;;;;;;;4938186;29;20415;-84
2021/05/05 01:30:09;;;;;;;2.47;1.97;;;;;;;;;;4952789;29;20457;-84
2021/05/05 01:32:35;;;;;;;1.70;1.60;;;;;;;;;;4937272;29;20458;-84
2021/05/05 01:35:02;;;;;;;2.30;2.10;;;;;;;;;;4951808;29;20426;-84
2021/05/05 01:37:28;;;;;;;2.25;1.75;;;;;;;;;;4935928;29;20449;-84
2021/05/05 01:39:55;;;;;;;2.80;1.83;;;;;;;;;;4926247;29;20232;-85
2021/05/05 01:42:24;;;;;;;2.50;1.53;;;;;;;;;;4943979;29;20461;-84
2021/05/05 01:44:51;;;;;;;4.30;2.03;;;;;;;;;;4943082;29;20418;-83
2021/05/05 01:47:17;;;;;;;2.30;1.87;;;;;;;;;;4933093;29;20559;-84
2021/05/05 01:49:44;;;;;;;2.22;1.52;;;;;;;;;;4924854;29;20592;-85
2021/05/05 01:52:12;;;;;;;2.28;1.98;;;;;;;;;;4924491;29;20198;-84
2021/05/05 01:54:38;;;;;;;6.32;1.92;;;;;;;;;;4940908;29;20193;-84
2021/05/05 01:57:42;;;;;;;4.80;2.30;;;;;;;;;;4942078;29;20175;-84
2021/05/05 02:00:19;;;;;;;3.15;2.50;;;;;;;;;;4927684;28;20179;-84
2021/05/05 02:02:51;;;;;;;3.47;2.23;;;;;;;;;;4940517;29;20205;-84
2021/05/05 02:05:24;;;;;;;3.40;3.10;;;;;;;;;;4940788;29;20406;-84
2021/05/05 02:08:06;;;;;;;3.13;2.00;;;;;;;;;;4941720;29;20946;-84
2021/05/05 02:10:32;;;;;;;3.27;1.93;;;;;;;;;;4940118;29;20550;-84
2021/05/05 02:12:58;;;;;;;3.50;1.80;;;;;;;;;;4924745;29;20459;-84
2021/05/05 02:15:24;;;;;;;1.97;1.80;;;;;;;;;;4941229;29;20171;-83
2021/05/05 02:17:55;;;;;;;3.23;1.87;;;;;;;;;;4925254;29;20429;-84
2021/05/05 02:20:23;;;;;;;4.00;1.87;;;;;;;;;;4939369;29;20438;-83
2021/05/05 02:22:49;;;;;;;1.65;1.15;;;;;;;;;;4939423;29;20821;-84
2021/05/05 02:25:18;;;;;;;3.60;1.53;;;;;;;;;;4937810;29;20178;-83
2021/05/05 02:27:45;;;;;;;2.93;1.80;;;;;;;;;;4945255;28;20440;-83
2021/05/05 02:30:18;;;;;;;4.82;2.53;;;;;;;;;;4958548;28;20415;-85
2021/05/05 02:32:51;;;;;;;5.00;1.63;;;;;;;;;;4958053;28;20194;-84
2021/05/05 02:35:18;;;;;;;2.33;2.10;;;;;;;;;;4956476;28;20422;-84
2021/05/05 02:37:46;;;;;;;2.97;2.25;;;;;;;;;;4940551;29;20422;-84
2021/05/05 02:40:13;;;;;;;2.30;1.60;;;;;;;;;;4924509;29;20191;-84
2021/05/05 02:42:39;;;;;;;5.10;2.30;;;;;;;;;;4924605;29;20214;-84
2021/05/05 02:45:06;;;;;;;2.78;1.77;;;;;;;;;;4940046;29;20411;-84
2021/05/05 02:47:33;;;;;;;3.43;2.60;;;;;;;;;;4939772;29;20167;-83
2021/05/05 02:49:59;;;;;;;5.67;2.00;;;;;;;;;;4940476;29;20424;-84
2021/05/05 02:52:25;;;;;;;2.78;1.88;;;;;;;;;;4925181;29;20475;-84
2021/05/05 02:54:51;;;;;;;2.63;2.42;;;;;;;;;;4940617;29;20617;-84
2021/05/05 02:57:17;;;;;;;7.07;2.30;;;;;;;;;;4940271;29;20183;-85
2021/05/05 02:59:43;;;;;;;6.43;3.60;;;;;;;;;;4941729;29;20453;-84
2021/05/05 03:02:09;;;;;;;5.30;2.10;;;;;;;;;;4940764;29;20422;-83
2021/05/05 03:04:35;;;;;;;4.00;2.43;;;;;;;;;;4924081;29;20426;-84
2021/05/05 03:07:02;;;;;;;3.10;2.43;;;;;;;;;;4939984;29;20418;-83
2021/05/05 03:09:30;;;;;;;4.00;2.37;;;;;;;;;;4923811;29;20611;-85
2021/05/05 03:11:59;;;;;;;7.75;2.53;;;;;;;;;;4925079;29;20423;-84
2021/05/05 03:14:26;;;;;;;2.00;1.90;;;;;;;;;;4943185;29;20197;-85
2021/05/05 03:16:53;;;;;;;3.78;2.22;;;;;;;;;;4941728;29;20270;-84
2021/05/05 03:19:19;;;;;;;3.70;2.60;;;;;;;;;;4925246;29;20269;-84
2021/05/05 03:21:45;;;;;;;6.37;2.30;;;;;;;;;;4941814;29;20430;-84
2021/05/05 03:24:11;;;;;;;3.47;2.78;;;;;;;;;;4941489;29;20494;-84
2021/05/05 03:26:37;;;;;;;6.07;2.97;;;;;;;;;;4941492;29;20233;-84
2021/05/05 03:29:04;;;;;;;5.30;2.43;;;;;;;;;;4940988;29;20194;-84
2021/05/05 03:31:30;;;;;;;4.65;3.22;;;;;;;;;;4942686;29;20422;-84
2021/05/05 03:33:56;;;;;;;4.33;2.60;;;;;;;;;;4947432;29;20201;-83
2021/05/05 03:36:22;;;;;;;4.05;2.42;;;;;;;;;;4949011;29;20433;-83
2021/05/05 03:38:48;;;;;;;3.10;2.27;;;;;;;;;;4932200;29;20245;-84
2021/05/05 03:41:15;;;;;;;4.43;2.40;;;;;;;;;;4940066;29;20543;-84
2021/05/05 03:43:41;;;;;;;4.17;2.53;;;;;;;;;;4941491;29;20462;-84
2021/05/05 03:46:07;;;;;;;4.40;2.83;;;;;;;;;;4931541;29;20534;-83
2021/05/05 03:48:33;;;;;;;2.83;2.53;;;;;;;;;;4931770;29;20453;-84
2021/05/05 03:50:59;;;;;;;3.13;2.40;;;;;;;;;;4946952;29;20415;-84
2021/05/05 03:53:25;;;;;;;7.37;2.30;;;;;;;;;;4946193;29;20478;-85
2021/05/05 03:55:52;;;;;;;1.80;1.70;;;;;;;;;;4941088;29;20438;-83
2021/05/05 03:58:18;;;;;;;2.40;1.73;;;;;;;;;;4923274;29;20939;-84
2021/05/05 04:00:44;;;;;;;2.47;1.83;;;;;;;;;;4938797;29;20418;-84
2021/05/05 04:03:10;;;;;;;2.27;2.10;;;;;;;;;;4938022;29;20461;-84
2021/05/05 04:05:36;;;;;;;5.00;2.77;;;;;;;;;;4936910;29;20442;-83
2021/05/05 04:08:02;;;;;;;5.00;2.67;;;;;;;;;;4943005;28;20437;-84
2021/05/05 04:10:28;;;;;;;2.57;2.37;;;;;;;;;;4956532;28;20442;-83
2021/05/05 04:12:54;;;;;;;2.77;2.10;;;;;;;;;;4955641;28;20449;-84
2021/05/05 04:15:20;;;;;;;4.60;2.37;;;;;;;;;;4955835;28;20557;-83
2021/05/05 04:17:46;;;;;;;5.73;2.00;;;;;;;;;;4941036;29;20414;-83
2021/05/05 04:20:18;;;;;;;4.23;2.40;;;;;;;;;;4938943;29;20449;-84
2021/05/05 04:22:44;;;;;;;5.00;2.50;;;;;;;;;;4940053;29;20462;-84
2021/05/05 04:25:11;;;;;;;3.20;2.90;;;;;;;;;;4939116;29;20421;-84
2021/05/05 04:27:39;;;;;;;3.37;2.27;;;;;;;;;;4940621;29;20410;-83
2021/05/05 04:30:07;;;;;;;1.90;1.70;;;;;;;;;;4938598;29;20496;-84
2021/05/05 04:32:33;;;;;;;9.50;2.10;;;;;;;;;;4939327;29;20414;-83
2021/05/05 04:35:02;;;;;;;2.37;2.17;;;;;;;;;;4940415;29;20442;-83
2021/05/05 04:37:28;;;;;;;5.73;2.60;;;;;;;;;;4941726;29;20423;-84
2021/05/05 04:39:54;;;;;;;5.13;2.67;;;;;;;;;;4940678;29;20426;-85
2021/05/05 04:42:20;;;;;;;3.23;2.23;;;;;;;;;;4940383;29;20820;-85
2021/05/05 04:44:46;;;;;;;2.00;1.80;;;;;;;;;;4939327;29;20513;-85
2021/05/05 04:47:18;;;;;;;2.53;2.10;;;;;;;;;;4939382;29;20791;-85
2021/05/05 04:49:46;;;;;;;2.83;1.57;;;;;;;;;;4938370;29;20427;-85
2021/05/05 04:52:44;;;;;;;7.30;2.20;;;;;;;;;;4938761;29;20415;-84
2021/05/05 04:55:30;;;;;;;5.37;2.50;;;;;;;;;;4943118;29;20407;-85
2021/05/05 04:57:56;;;;;;;6.40;2.20;;;;;;;;;;4927469;29;20442;-82
2021/05/05 05:00:23;;;;;;;2.13;2.03;;;;;;;;;;4949304;29;20432;-83
2021/05/05 05:02:49;;;;;;;4.43;3.63;;;;;;;;;;4933112;29;20535;-83
2021/05/05 05:05:15;;;;;;;11.70;7.07;;;;;;;;;;4949243;29;20474;-85
2021/05/05 05:07:41;;;;;;;7.37;3.70;;;;;;;;;;4949164;29;20412;-85
2021/05/05 05:10:10;;;;;;;35.33;14.40;;;;;;;;;;4933123;29;20431;-85
2021/05/05 05:12:44;;;;;;;29.03;10.93;;;;;;;;;;4948262;29;20439;-85
2021/05/05 05:15:13;;;;;;;49.10;16.10;;;;;;;;;;4925910;28;20428;-84
2021/05/05 05:17:39;;;;;;;44.37;16.63;;;;;;;;;;4923723;28;20434;-85
2021/05/05 05:20:08;;;;;;;15.13;6.03;;;;;;;;;;4943221;29;20466;-85
2021/05/05 05:22:35;;;;;;;13.20;6.37;;;;;;;;;;4924542;29;20453;-85
2021/05/05 05:25:24;;;;;;;9.23;4.73;;;;;;;;;;4939638;29;20421;-85
2021/05/05 05:28:06;;;;;;;5.83;4.03;;;;;;;;;;4943468;29;20497;-84
2021/05/05 05:30:40;;;;;;;6.50;4.50;;;;;;;;;;4943119;29;20406;-86
2021/05/05 05:33:07;;;;;;;5.37;4.87;;;;;;;;;;4942430;29;20423;-84
2021/05/05 05:35:33;;;;;;;5.60;3.57;;;;;;;;;;4926335;29;20419;-85
2021/05/05 05:38:10;;;;;;;4.53;4.07;;;;;;;;;;4941980;29;20770;-85
2021/05/05 05:40:45;;;;;;;10.47;9.90;;;;;;;;;;4943269;29;20891;-86
2021/05/05 05:43:15;;;;;;;5.97;3.20;;;;;;;;;;4925873;29;20542;-84
2021/05/05 05:45:46;;;;;;;26.23;11.93;;;;;;;;;;4925563;29;20512;-84
2021/05/05 05:48:27;;;;;;;35.17;12.10;;;;;;;;;;4947709;28;20857;-85
2021/05/05 05:50:53;;;;;;;34.47;11.07;;;;;;;;;;4957408;28;20434;-84
2021/05/05 05:53:22;;;;;;;30.83;11.23;;;;;;;;;;4940317;28;20437;-85
2021/05/05 05:55:48;;;;;;;25.87;11.87;;;;;;;;;;4939884;28;20424;-83
2021/05/05 05:58:15;;;;;;;16.00;5.80;;;;;;;;;;4943148;28;20419;-85
2021/05/05 06:00:41;;;;;;;35.17;15.73;;;;;;;;;;4924867;28;20420;-85
2021/05/05 06:03:10;;;;;;;52.43;21.73;;;;;;;;;;4943758;29;20604;-85
2021/05/05 06:05:37;;;;;;;20.33;10.03;;;;;;;;;;4943458;29;20419;-85
2021/05/05 06:08:06;;;;;;;4.70;3.13;;;;;;;;;;4924766;29;20514;-85
2021/05/05 06:10:32;;;;;;;7.50;4.90;;;;;;;;;;5006488;23;20502;-87
2021/05/05 06:13:04;;;;;;;8.43;4.57;;;;;;;;;;5022733;28;20446;-86
2021/05/05 06:15:49;;;;;;;2.77;2.57;;;;;;;;;;5018185;28;20415;-87
2021/05/05 06:18:15;;;;;;;4.70;3.27;;;;;;;;;;5038025;28;20444;-86
2021/05/05 06:20:44;;;;;;;3.30;3.00;;;;;;;;;;5003516;28;20470;-86
2021/05/05 06:23:16;;;;;;;5.30;3.20;;;;;;;;;;5008623;28;20840;-87
2021/05/05 06:25:43;;;;;;;7.40;5.30;;;;;;;;;;5019748;28;20431;-86
2021/05/05 06:28:22;;;;;;;58.13;16.53;;;;;;;;;;5020863;28;20475;-86
2021/05/05 06:30:54;;;;;;;54.00;21.90;;;;;;;;;;5019240;28;20439;-87
2021/05/05 06:36:33;;;;;;;16.83;6.53;;;;;;;;;;4983221;28;20837;-87
2021/05/05 06:39:10;;;;;;;17.70;5.70;;;;;;;;;;4996001;28;20428;-87
2021/05/05 06:41:42;;;;;;;4.13;3.13;;;;;;;;;;5005269;28;20467;-86
2021/05/05 06:44:19;;;;;;;;;;;;;;;;;;;;;
2021/05/05 06:46:56;;;;;;;8.47;4.00;;;;;;;;;;5018040;28;20506;-88
2021/05/05 06:49:34;;;;;;;4.13;2.67;;;;;;;;;;5003948;28;20431;-87
2021/05/05 06:52:37;;;;;;;2.90;2.40;;;;;;;;;;5019978;28;20423;-88
2021/05/05 06:55:59;;;;;;;4.03;2.83;;;;;;;;;;5022873;28;20426;-88
2021/05/05 06:58:09;;;;;;;3.93;2.97;;;;;;;;;;5003809;28;20417;-87
2021/05/05 07:00:35;;;;;;;3.90;2.70;;;;;;;;;;5001607;28;20481;-86
2021/05/05 07:03:09;;;;;;;5.37;2.30;;;;;;;;;;5001477;28;20513;-87
2021/05/05 07:06:22;;;;;;;3.10;2.83;;;;;;;;;;5002674;28;20411;-88
2021/05/05 07:08:37;;;;;;;6.13;2.50;;;;;;;;;;5006423;28;20808;-86
2021/05/05 07:11:10;;;;;;;4.40;2.63;;;;;;;;;;5011231;28;20463;-87
2021/05/05 07:14:10;;;;;;;2.67;2.47;;;;;;;;;;5030677;28;20412;-86
2021/05/05 07:17:11;;;;;;;3.03;2.30;;;;;;;;;;5017367;28;20499;-87
2021/05/05 07:19:50;;;;;;;;;;;;;;;;;;;;;
2021/05/05 07:22:36;;;;;;;2.97;2.23;;;;;;;;;;5030866;28;20443;-87
2021/05/05 07:25:06;;;;;;;3.90;2.70;;;;;;;;;;5012284;28;20433;-87
2021/05/05 07:28:00;;;;;;;3.90;2.07;;;;;;;;;;5018683;28;20448;-87
2021/05/05 07:31:19;;;;;;;;;;;;;;;;;;;;;
2021/05/05 07:33:34;;;;;;;3.10;2.80;;;;;;;;;;5011703;28;20439;-87
2021/05/05 07:36:29;;;;;;;4.20;3.50;;;;;;;;;;5026795;28;20434;-88
2021/05/05 07:51:11;;;;;;;4.33;2.47;;;;;;;;;;5013746;28;20459;-86
2021/05/05 07:53:58;;;;;;;3.53;2.93;;;;;;;;;;4999805;28;20878;-88
2021/05/05 07:56:54;;;;;;;4.77;3.27;;;;;;;;;;5036645;28;20949;-88
2021/05/05 07:59:32;;;;;;;33.40;9.40;;;;;;;;;;5003487;28;20604;-87
2021/05/05 08:02:13;;;;;;;13.53;5.90;;;;;;;;;;5001065;28;20414;-87
2021/05/05 08:04:51;;;;;;;6.50;4.30;;;;;;;;;;5019161;28;20740;-88
2021/05/05 08:07:24;;;;;;;11.57;6.30;;;;;;;;;;4995658;28;20419;-87
2021/05/05 08:13:30;;;;;;;5.07;3.70;;;;;;;;;;5002615;28;20395;-88
2021/05/05 08:16:03;;;;;;;9.90;3.70;;;;;;;;;;4989071;28;20416;-87
2021/05/05 08:18:48;;;;;;;4.73;2.30;;;;;;;;;;4997973;28;20461;-87
2021/05/05 08:21:45;;;;;;;;;;;;;;;;;;;;;
2021/05/05 08:24:32;;;;;;;11.40;4.73;;;;;;;;;;4998748;28;20451;-88
2021/05/05 08:26:59;;;;;;;17.70;6.77;;;;;;;;;;4997439;28;20390;-88
2021/05/05 08:29:28;;;;;;;7.33;4.60;;;;;;;;;;4996437;28;20454;-87
2021/05/05 08:31:57;;;;;;;10.17;4.80;;;;;;;;;;4996187;28;20512;-88
2021/05/05 08:34:27;;;;;;;3.20;2.63;;;;;;;;;;5014925;28;20793;-87
2021/05/05 08:36:58;;;;;;;2.63;2.43;;;;;;;;;;4998287;28;20424;-86
2021/05/05 08:39:24;;;;;;;2.83;2.47;;;;;;;;;;4996611;28;20597;-87
2021/05/05 08:41:57;;;;;;;26.53;10.00;;;;;;;;;;5012853;28;20502;-86
2021/05/05 08:44:23;;;;;;;14.63;3.53;;;;;;;;;;4997326;28;20463;-87
2021/05/05 08:46:51;;;;;;;4.97;2.57;;;;;;;;;;5013244;28;20419;-86
2021/05/05 08:49:29;;;;;;;3.30;3.07;;;;;;;;;;4995237;28;20447;-87
2021/05/05 08:52:01;;;;;;;4.60;2.90;;;;;;;;;;5012960;28;20435;-88
2021/05/05 08:54:33;;;;;;;5.13;2.67;;;;;;;;;;5012812;28;20415;-86
2021/05/05 08:56:59;;;;;;;4.03;3.57;;;;;;;;;;4996636;28;20431;-89
2021/05/05 08:59:29;;;;;;;27.10;9.83;;;;;;;;;;4999747;28;20435;-88
2021/05/05 09:02:18;;;;;;;3.47;3.10;;;;;;;;;;5001881;28;20496;-87
2021/05/05 09:05:34;;;;;;;5.77;2.20;;;;;;;;;;4999893;28;20419;-87
2021/05/05 09:09:12;;;;;;;;;;;;;;;;;;;;;
2021/05/05 09:12:07;;;;;;;;;;;;;;;;;;;;;
2021/05/05 09:15:15;;;;;;;;;;;;;;;;;;;;;
2021/05/05 09:18:21;;;;;;;5.00;2.53;;;;;;;;;;5041307;28;20429;-85
2021/05/05 09:24:44;;;;;;;;;;;;;;;;;;;;;
2021/05/05 09:27:25;;;;;;;7.47;3.30;;;;;;;;;;5002042;28;20414;-88
2021/05/05 09:30:00;;;;;;;9.13;3.37;;;;;;;;;;5002579;28;20795;-87
2021/05/05 09:32:55;;;;;;;28.77;10.80;;;;;;;;;;5019198;28;20377;-87
2021/05/05 09:35:42;;;;;;;15.73;5.53;;;;;;;;;;4988302;28;20407;-87
2021/05/05 09:41:46;;;;;;;1.70;1.43;;;;;;;;;;5020345;28;20427;-87
2021/05/05 09:44:41;;;;;;;;;;;;;;;;;;;;;
2021/05/05 09:47:23;;;;;;;2.57;1.70;;;;;;;;;;5034160;28;20408;-87
2021/05/05 09:49:53;;;;;;;3.23;1.37;;;;;;;;;;5013976;28;20442;-87
2021/05/05 09:56:30;;;;;;;2.37;1.80;;;;;;;;;;5021725;28;20774;-87
2021/05/05 09:59:07;;;;;;;3.00;1.93;;;;;;;;;;5036370;23;20404;-88
2021/05/05 10:02:03;;;;;;;2.57;2.37;;;;;;;;;;5049207;28;20434;-88
2021/05/05 10:04:39;;;;;;;2.50;2.30;;;;;;;;;;5030986;28;20450;-88
2021/05/05 10:07:11;;;;;;;2.50;1.87;;;;;;;;;;5028470;28;20426;-88
2021/05/05 10:09:49;;;;;;;7.40;2.73;;;;;;;;;;5042181;28;20497;-88
2021/05/05 10:12:35;;;;;;;2.90;2.17;;;;;;;;;;5033878;28;20430;-86
2021/05/05 10:15:05;;;;;;;1.80;1.70;;;;;;;;;;5021165;28;20480;-88
2021/05/05 10:18:00;;;;;;;2.13;2.03;;;;;;;;;;5019915;28;20914;-88
2021/05/05 10:20:56;;;;;;;4.30;2.73;;;;;;;;;;5058692;28;20954;-88
2021/05/05 10:23:32;;;;;;;3.47;3.17;;;;;;;;;;5043282;28;20449;-87
2021/05/05 10:26:02;;;;;;;5.10;3.20;;;;;;;;;;5042650;28;20448;-87
2021/05/05 10:28:35;;;;;;;2.90;2.57;;;;;;;;;;5059468;28;20928;-88
2021/05/05 10:44:06;;;;;;;2.40;2.20;;;;;;;;;;1243386;27;20480;-88
2021/05/05 10:46:36;;;;;;;3.10;2.77;;;;;;;;;;5015141;28;20769;-88
2021/05/05 10:49:38;;;;;;;3.30;2.10;;;;;;;;;;4999642;28;20498;-88
2021/05/05 11:07:57;;;;;;;1.80;1.70;;;;;;;;;;3008478;26;20480;-86
2021/05/05 11:10:40;;;;;;;3.40;2.80;;;;;;;;;;4905452;29;20447;-88
2021/05/05 11:13:22;;;;;;;2.37;1.50;;;;;;;;;;4936318;29;20418;-88
2021/05/05 11:16:15;;;;;;;2.50;1.70;;;;;;;;;;4952768;28;20851;-87
2021/05/05 11:18:45;;;;;;;1.80;1.23;;;;;;;;;;4921066;29;20443;-88
2021/05/05 11:21:37;;;;;;;1.60;0.90;;;;;;;;;;4938880;28;20992;-88
2021/05/05 11:24:26;;;;;;;1.70;1.30;;;;;;;;;;4938513;29;20498;-88
2021/05/05 11:26:55;;;;;;;1.33;1.23;;;;;;;;;;4923478;29;20737;-87
2021/05/05 11:29:32;;;;;;;1.73;1.20;;;;;;;;;;4923213;29;20423;-88
2021/05/05 11:35:34;;;;;;;3.50;1.40;;;;;;;;;;4985770;28;20400;-86
2021/05/05 11:38:10;;;;;;;3.83;1.97;;;;;;;;;;4983324;28;20940;-88
2021/05/05 11:40:39;;;;;;;7.37;1.13;;;;;;;;;;4966106;28;20437;-87
2021/05/05 11:43:18;;;;;;;3.90;1.20;;;;;;;;;;4982293;28;20455;-86
2021/05/05 11:46:15;;;;;;;3.90;1.33;;;;;;;;;;4970284;28;20503;-87
2021/05/05 11:48:43;;;;;;;1.50;1.10;;;;;;;;;;4970764;28;20419;-88
2021/05/05 11:57:38;;;;;;;2.80;0.97;;;;;;;;;;5006808;28;20419;-86
2021/05/05 12:00:11;;;;;;;2.53;1.83;;;;;;;;;;4990104;28;20428;-87
2021/05/05 12:02:44;;;;;;;5.40;1.43;;;;;;;;;;4988601;28;20944;-87
2021/05/05 12:05:31;;;;;;;2.10;1.10;;;;;;;;;;4970940;28;20416;-86
2021/05/05 12:08:07;;;;;;;2.63;1.40;;;;;;;;;;5008409;28;20419;-87
2021/05/05 12:24:21;;;;;;;1.60;1.03;;;;;;;;;;4630772;26;20533;-86
2021/05/05 12:26:52;;;;;;;5.00;1.73;;;;;;;;;;4912998;29;20777;-85
2021/05/05 12:29:25;;;;;;;2.00;1.80;;;;;;;;;;4912629;29;20410;-83
2021/05/05 12:31:58;;;;;;;7.83;1.53;;;;;;;;;;4926845;29;20443;-84
2021/05/05 12:34:40;;;;;;;;;;;;;;;;;;;;;
2021/05/05 12:37:10;;;;;;;2.60;1.97;;;;;;;;;;4951064;29;20415;-85
2021/05/05 12:40:22;;;;;;;5.17;1.70;;;;;;;;;;4944142;29;20451;-86
2021/05/05 12:42:52;;;;;;;3.10;1.90;;;;;;;;;;4932295;29;20459;-86
2021/05/05 12:45:41;;;;;;;3.23;1.70;;;;;;;;;;4930440;29;20410;-86
2021/05/05 12:48:19;;;;;;;2.27;1.30;;;;;;;;;;4927328;28;20427;-84
2021/05/05 12:50:54;;;;;;;2.40;1.20;;;;;;;;;;4942398;29;20987;-84
2021/05/05 12:54:06;;;;;;;2.73;1.83;;;;;;;;;;4927762;29;20783;-86
2021/05/05 12:57:01;;;;;;;;;;;;;;;;;;;;;
2021/05/05 12:59:38;;;;;;;3.60;1.83;;;;;;;;;;4931649;28;20413;-86
2021/05/05 13:06:03;;;;;;;3.73;2.13;;;;;;;;;;4923144;29;20432;-84
2021/05/05 13:09:15;;;;;;;;;;;;;;;;;;;;;
2021/05/05 13:12:16;;;;;;;4.10;1.90;;;;;;;;;;4927376;29;20438;-86
2021/05/05 13:37:10;;;;;;;1.10;1.00;;;;;;;;;;4746809;26;20549;-86
2021/05/05 13:39:55;;;;;;;5.00;1.87;;;;;;;;;;5009788;28;20431;-87
2021/05/05 13:42:41;;;;;;;1.73;1.43;;;;;;;;;;5009106;28;20406;-86
2021/05/05 13:51:52;;;;;;;3.17;2.00;;;;;;;;;;4967692;28;20436;-85
2021/05/05 13:54:32;;;;;;;3.63;1.97;;;;;;;;;;4954080;28;20790;-85
2021/05/05 13:57:08;;;;;;;2.00;1.80;;;;;;;;;;4970255;28;20416;-85
2021/05/05 14:00:05;;;;;;;;;;;;;;;;;;;;;
2021/05/05 14:03:20;;;;;;;;;;;;;;;;;;;;;
2021/05/05 14:06:12;;;;;;;;;;;;;;;;;;;;;
2021/05/05 14:12:03;;;;;;;2.87;1.70;;;;;;;;;;4993274;28;20414;-83
2021/05/05 14:14:49;;;;;;;2.97;1.83;;;;;;;;;;5011826;28;20451;-87
2021/05/05 14:17:32;;;;;;;12.80;6.90;;;;;;;;;;5015841;28;20450;-86
2021/05/05 14:20:09;;;;;;;9.40;2.50;;;;;;;;;;5031501;28;20438;-84
2021/05/05 14:22:48;;;;;;;4.80;2.10;;;;;;;;;;5031643;28;20610;-84
2021/05/05 14:25:49;;;;;;;5.57;1.80;;;;;;;;;;5011092;28;20450;-85
2021/05/05 14:28:30;;;;;;;4.20;2.20;;;;;;;;;;5025421;28;20407;-85
2021/05/05 14:55:55;;;;;;;2.77;2.20;;;;;;;;;;4928413;29;20488;-85
2021/05/05 14:59:16;;;;;;;;;;;;;;;;;;;;;
2021/05/05 15:01:56;;;;;;;3.40;2.07;;;;;;;;;;5048963;23;20521;-85
2021/05/05 15:04:29;;;;;;;4.40;2.27;;;;;;;;;;5044981;28;20462;-82
2021/05/05 15:07:03;;;;;;;2.33;1.60;;;;;;;;;;5031600;28;20426;-83
2021/05/05 15:09:52;;;;;;;2.93;2.20;;;;;;;;;;5034539;28;20424;-83
2021/05/05 15:12:42;;;;;;;3.53;1.87;;;;;;;;;;5052293;28;20411;-84
2021/05/05 15:15:36;;;;;;;5.20;2.40;;;;;;;;;;5069750;28;20569;-84
2021/05/05 15:29:07;;;;;;;6.77;3.77;;;;;;;;;;5033864;28;20482;-87
2021/05/05 15:48:26;;;;;;;3.83;1.70;;;;;;;;;;4923288;29;20543;-85
2021/05/05 15:50:53;;;;;;;3.87;2.10;;;;;;;;;;4924344;29;20505;-85
2021/05/05 15:53:25;;;;;;;1.30;1.20;;;;;;;;;;4924975;29;20444;-84
2021/05/05 15:56:03;;;;;;;1.40;1.20;;;;;;;;;;4924219;29;20435;-82
2021/05/05 15:58:31;;;;;;;1.70;1.50;;;;;;;;;;4926209;29;20391;-85
2021/05/05 16:01:24;;;;;;;1.93;1.43;;;;;;;;;;4914206;29;20467;-80
2021/05/05 16:16:52;;;;;;;2.97;1.60;;;;;;;;;;4926747;29;20406;-84
2021/05/05 16:19:21;;;;;;;3.90;1.43;;;;;;;;;;4927287;29;20411;-84
2021/05/05 16:48:23;;;;;;;2.25;1.88;;;;;;;;;;4924322;29;20504;-85
2021/05/05 17:09:58;;;;;;;3.40;1.80;;;;;;;;;;4921034;29;20179;-85
2021/05/05 17:12:26;;;;;;;2.28;1.40;;;;;;;;;;4906502;29;20415;-84
2021/05/05 17:14:59;;;;;;;3.13;1.43;;;;;;;;;;4923456;29;20164;-84
2021/05/05 17:17:32;;;;;;;1.87;1.73;;;;;;;;;;4922779;29;20634;-85
2021/05/05 17:20:10;;;;;;;4.30;2.33;;;;;;;;;;4922918;29;20812;-83
2021/05/05 17:22:41;;;;;;;2.03;1.63;;;;;;;;;;4925068;29;20179;-84
2021/05/05 17:25:11;;;;;;;1.50;1.40;;;;;;;;;;4925205;29;20442;-84
2021/05/05 17:27:47;;;;;;;1.57;1.43;;;;;;;;;;4908475;29;20741;-84
2021/05/05 18:10:01;;;;;;;2.83;1.33;;;;;;;;;;4936492;29;20395;-82
2021/05/05 18:14:32;;;;;;;3.33;1.93;;;;;;;;;;4934201;29;20454;-78
2021/05/05 18:17:19;;;;;;;9.07;3.27;;;;;;;;;;4932773;29;20407;-81
2021/05/05 18:19:53;;;;;;;4.45;2.30;;;;;;;;;;4934490;29;20408;-83
2021/05/05 18:28:07;;;;;;;3.40;1.97;;;;;;;;;;4925050;29;20400;-84
2021/05/05 18:30:34;;;;;;;4.07;1.70;;;;;;;;;;4924996;29;20434;-82
2021/05/05 18:33:00;;;;;;;2.70;1.60;;;;;;;;;;4906382;29;20404;-83
2021/05/05 18:35:27;;;;;;;4.30;2.10;;;;;;;;;;4922513;29;20416;-82
2021/05/05 18:37:53;;;;;;;2.77;2.57;;;;;;;;;;4924275;29;20396;-80
2021/05/05 18:40:23;;;;;;;4.00;2.70;;;;;;;;;;4923997;29;20439;-83
2021/05/05 19:43:51;;;;;;;12.15;3.88;;;;;;;;;;4920189;29;20195;-85
2021/05/05 21:07:07;;;;;;;16.50;3.60;;;;;;;;;;4932900;29;20163;-78
2021/05/05 22:33:49;;;;;;;5.30;2.90;;;;;;;;;;4920479;29;20191;-83
2021/05/05 22:34:37;;;;;;;5.68;2.80;;;;;;;;;;4919883;29;20216;-80
2021/05/05 23:12:38;;;;;;;9.15;2.78;;;;;;;;;;4921361;29;20609;-82
2021/05/05 23:15:17;;;;;;;3.50;2.03;;;;;;;;;;4918987;29;20183;-83
2021/05/05 23:28:14;;;;;;;5.15;2.65;;;;;;;;;;4919098;29;20195;-82
2021/05/05 23:36:14;;;;;;;9.25;3.45;;;;;;;;;;4920426;29;20175;-83
2021/05/05 23:38:46;;;;;;;10.57;2.90;;;;;;;;;;4920693;29;20186;-84
